createdAt,value
2018-04-11T00:05:18.787Z,84.27
2018-04-11T00:15:16.232Z,84.58
2018-04-11T00:25:12.249Z,86.65
2018-04-11T00:35:09.939Z,87.55
2018-04-11T00:45:04.870Z,90.14
2018-04-11T00:54:59.125Z,88.61
2018-04-11T01:04:57.129Z,87.70
2018-04-11T01:14:54.570Z,89.84
2018-04-11T01:24:48.725Z,91.05
2018-04-11T01:34:44.309Z,90.78
2018-04-11T01:44:40.498Z,91.44
2018-04-11T01:54:34.856Z,92.25
2018-04-11T02:04:33.082Z,93.57
2018-04-11T02:14:27.787Z,94.89
2018-04-11T02:24:25.829Z,94.89
2018-04-11T02:34:22.478Z,95.65
2018-04-11T02:44:18.987Z,95.65
2018-04-11T02:54:15.128Z,95.64
2018-04-11T03:04:10.386Z,97.12
2018-04-11T03:14:07.778Z,96.60
2018-04-11T03:24:01.899Z,97.27
2018-04-11T03:33:56.260Z,96.70
2018-04-11T03:43:52.610Z,97.57
2018-04-11T03:53:49.873Z,97.31
2018-04-11T04:03:44.346Z,97.62
2018-04-11T04:13:40.414Z,97.56
2018-04-11T04:23:35.354Z,98.33
2018-04-11T04:33:31.337Z,98.85
2018-04-11T04:43:28.648Z,98.33
2018-04-11T04:53:27.226Z,96.85
2018-04-11T05:03:25.420Z,96.91
2018-04-11T05:13:19.717Z,95.74
2018-04-11T05:23:18.146Z,95.18
2018-04-11T05:33:16.532Z,93.71
2018-04-11T05:43:13.055Z,93.92
2018-04-11T05:53:08.069Z,91.78
2018-04-11T06:03:06.600Z,91.29
2018-04-11T06:13:04.865Z,89.23
2018-04-11T06:23:03.350Z,87.23
2018-04-11T06:33:01.533Z,84.74
2018-04-11T06:42:58.295Z,81.54
2018-04-11T06:52:53.170Z,82.73
2018-04-11T07:02:51.101Z,81.33
2018-04-11T07:12:46.865Z,77.76
2018-04-11T07:22:46.257Z,75.73
2018-04-11T07:32:45.201Z,73.29
2018-04-11T07:42:43.169Z,68.87
2018-04-11T07:52:38.526Z,69.85
2018-04-11T08:02:35.270Z,69.11
2018-04-11T08:12:32.017Z,69.38
2018-04-11T08:22:29.714Z,69.58
2018-04-11T08:32:24.354Z,69.89
2018-04-11T08:42:21.566Z,68.54
2018-04-11T08:52:06.075Z,65.72
2018-04-11T09:02:03.380Z,65.49
2018-04-11T09:11:39.506Z,66.20
2018-04-11T09:21:17.020Z,66.07
2018-04-11T09:30:55.160Z,64.67
2018-04-11T09:40:31.586Z,62.59
2018-04-11T09:50:09.298Z,60.38
2018-04-11T09:59:47.105Z,60.85
2018-04-11T10:09:24.671Z,58.78
2018-04-11T10:19:02.391Z,59.43
2018-04-11T10:28:40.380Z,53.70
2018-04-11T10:38:17.744Z,53.95
2018-04-11T10:47:59.403Z,52.72
2018-04-11T10:57:28.998Z,54.82
2018-04-11T11:07:07.617Z,51.24
2018-04-11T11:16:44.878Z,49.08
2018-04-11T11:26:24.209Z,52.72
2018-04-11T11:35:52.002Z,52.34
2018-04-11T11:45:28.328Z,48.42
2018-04-11T11:55:08.544Z,42.01
2018-04-11T12:04:46.905Z,42.93
2018-04-11T12:14:25.208Z,43.95
2018-04-11T12:24:00.757Z,43.05
2018-04-11T12:33:38.416Z,46.62
2018-04-11T12:43:13.059Z,48.73
2018-04-11T12:52:52.602Z,54.52
2018-04-11T13:02:21.188Z,47.54
2018-04-11T13:12:02.087Z,41.67
2018-04-11T13:21:46.429Z,43.31
2018-04-11T13:31:15.529Z,40.90
2018-04-11T13:40:53.477Z,41.20
2018-04-11T13:50:26.527Z,47.61
2018-04-11T14:00:00.731Z,45.04
2018-04-11T14:09:34.774Z,49.96
2018-04-11T14:19:12.585Z,46.98
2018-04-11T14:28:48.135Z,49.54
2018-04-11T14:38:24.748Z,48.25
2018-04-11T14:48:02.061Z,49.43
2018-04-11T14:57:39.203Z,47.96
2018-04-11T15:07:17.681Z,45.62
2018-04-11T15:16:57.745Z,48.79
2018-04-11T15:26:36.257Z,44.92
2018-04-11T15:36:15.581Z,44.07
2018-04-11T15:45:51.256Z,43.90
2018-04-11T15:55:29.826Z,45.98
2018-04-11T16:05:03.395Z,46.18
2018-04-11T16:14:39.225Z,45.70
2018-04-11T16:24:15.622Z,45.62
2018-04-11T16:33:52.047Z,48.25
2018-04-11T16:43:28.717Z,52.92
2018-04-11T16:53:04.961Z,55.28
2018-04-11T17:02:40.979Z,55.91
2018-04-11T17:12:17.155Z,57.65
2018-04-11T17:21:53.691Z,61.86
2018-04-11T17:31:33.607Z,58.64
2018-04-11T17:41:05.662Z,62.12
2018-04-11T17:50:34.343Z,60.41
2018-04-11T18:00:09.092Z,63.39
2018-04-11T18:09:44.967Z,66.25
2018-04-11T18:19:23.756Z,67.43
2018-04-11T18:29:03.582Z,68.16
2018-04-11T18:38:40.842Z,68.77
2018-04-11T18:48:35.711Z,63.89
2018-04-11T18:58:31.772Z,64.12
2018-04-11T19:08:25.367Z,66.70
2018-04-11T19:18:20.124Z,68.37
2018-04-11T19:28:16.342Z,70.93
2018-04-11T19:38:11.904Z,71.47
2018-04-11T19:48:07.884Z,74.60
2018-04-11T19:58:04.710Z,75.41
2018-04-11T20:08:00.149Z,74.94
2018-04-11T20:17:52.128Z,77.28
2018-04-11T20:27:48.305Z,78.69
2018-04-11T20:37:45.157Z,78.73
2018-04-11T20:47:40.019Z,79.27
2018-04-11T20:57:35.309Z,81.58
2018-04-11T21:07:31.051Z,83.34
2018-04-11T21:17:27.697Z,83.24
2018-04-11T21:27:21.989Z,81.58
2018-04-11T21:37:18.479Z,81.48
2018-04-11T21:47:15.874Z,81.92
2018-04-11T21:57:11.925Z,82.09
2018-04-11T22:07:09.771Z,82.19
2018-04-11T22:17:08.015Z,84.05
2018-04-11T22:27:02.591Z,83.59
2018-04-11T22:36:56.658Z,84.84
2018-04-11T22:46:53.796Z,87.02
2018-04-11T22:56:49.960Z,87.77
2018-04-11T23:06:46.347Z,87.47
2018-04-11T23:16:43.190Z,88.83
2018-04-11T23:26:39.863Z,89.14
2018-04-11T23:36:37.930Z,87.47
2018-04-11T23:46:36.688Z,86.31
2018-04-11T23:56:33.740Z,85.96
